createdAt,value
2023-09-14T00:02:16.711Z,100026.98
2023-09-14T00:05:20.802Z,100033.10
2023-09-14T00:08:24.779Z,100025.86
2023-09-14T00:11:28.723Z,100034.30
2023-09-14T00:14:33.488Z,100041.73
2023-09-14T00:17:37.421Z,100037.05
2023-09-14T00:20:41.552Z,100030.04
2023-09-14T00:23:45.773Z,100034.74
2023-09-14T00:26:50.668Z,100034.48
2023-09-14T00:29:55.098Z,100029.98
2023-09-14T00:32:59.061Z,100028.43
2023-09-14T00:36:03.657Z,100029.74
2023-09-14T00:39:11.254Z,100032.99
2023-09-14T00:42:15.241Z,100037.23
2023-09-14T00:45:21.612Z,100037.94
2023-09-14T00:48:25.960Z,100040.30
2023-09-14T00:51:30.743Z,100043.33
2023-09-14T00:54:34.918Z,100048.71
2023-09-14T00:57:39.647Z,100050.35
2023-09-14T01:00:45.907Z,100046.32
2023-09-14T01:03:50.489Z,100047.89
2023-09-14T01:06:56.408Z,100046.10
2023-09-14T01:10:01.152Z,100047.74
2023-09-14T01:13:05.260Z,100049.86
2023-09-14T01:16:17.011Z,100050.30
2023-09-14T01:19:48.694Z,100055.71
2023-09-14T01:23:04.208Z,100059.21
2023-09-14T01:26:09.658Z,100059.91
2023-09-14T01:29:13.640Z,100068.55
2023-09-14T01:32:18.015Z,100071.36
2023-09-14T01:35:22.243Z,100081.06
2023-09-14T01:38:26.700Z,100082.36
2023-09-14T01:41:32.407Z,100082.83
2023-09-14T01:44:37.652Z,100082.08
2023-09-14T01:47:42.712Z,100082.61
2023-09-14T01:50:47.305Z,100079.98
2023-09-14T01:53:51.732Z,100080.11
2023-09-14T01:56:55.840Z,100084.31
2023-09-14T02:00:00.032Z,100086.96
2023-09-14T02:03:04.488Z,100085.10
2023-09-14T02:06:08.593Z,100085.13
2023-09-14T02:09:12.604Z,100086.60
2023-09-14T02:12:16.712Z,100087.32
2023-09-14T02:15:20.644Z,100087.96
2023-09-14T02:18:24.753Z,100087.16
2023-09-14T02:21:28.771Z,100094.93
2023-09-14T02:24:32.871Z,100098.30
2023-09-14T02:27:36.908Z,100101.27
2023-09-14T02:30:41.402Z,100104.14
2023-09-14T02:33:45.517Z,100102.73
2023-09-14T02:36:50.131Z,100107.96
2023-09-14T02:39:54.206Z,100111.72
2023-09-14T02:42:59.659Z,100108.55
2023-09-14T02:46:03.806Z,100110.48
2023-09-14T02:49:07.921Z,100116.92
2023-09-14T02:52:12.032Z,100117.09
2023-09-14T02:55:16.161Z,100125.35
2023-09-14T02:58:20.344Z,100128.35
2023-09-14T03:01:25.787Z,100130.50
2023-09-14T03:04:30.012Z,100133.54
2023-09-14T03:07:34.287Z,100138.86
2023-09-14T03:10:39.128Z,100145.98
2023-09-14T03:13:43.156Z,100144.77
2023-09-14T03:16:47.932Z,100146.42
2023-09-14T03:19:54.422Z,100149.24
2023-09-14T03:23:00.583Z,100154.42
2023-09-14T03:26:04.647Z,100156.91
2023-09-14T03:29:09.148Z,100157.42
2023-09-14T03:32:13.280Z,100165.36
2023-09-14T03:35:17.320Z,100169.73
2023-09-14T03:38:22.220Z,100170.00
2023-09-14T03:41:26.308Z,100169.17
2023-09-14T03:44:30.336Z,100173.07
2023-09-14T03:47:34.437Z,100178.09
2023-09-14T03:50:38.389Z,100183.72
2023-09-14T03:53:42.625Z,100185.27
2023-09-14T03:56:46.589Z,100189.05
2023-09-14T03:59:50.757Z,100193.98
2023-09-14T04:02:55.244Z,100198.21
2023-09-14T04:05:59.650Z,100200.27
2023-09-14T04:09:05.639Z,100202.86
2023-09-14T04:12:10.346Z,100206.93
2023-09-14T04:15:15.002Z,100216.33
2023-09-14T04:18:19.653Z,100220.48
2023-09-14T04:21:23.834Z,100224.86
2023-09-14T04:24:28.045Z,100232.57
2023-09-14T04:27:32.393Z,100235.04
2023-09-14T04:30:45.969Z,100241.28
2023-09-14T04:33:50.168Z,100242.41
2023-09-14T04:36:54.161Z,100251.38
2023-09-14T04:39:58.346Z,100254.70
2023-09-14T04:43:02.451Z,100259.29
2023-09-14T04:46:06.810Z,100260.59
2023-09-14T04:49:14.073Z,100259.98
2023-09-14T04:52:18.264Z,100262.92
2023-09-14T04:55:22.957Z,100264.27
2023-09-14T04:58:27.206Z,100266.16
2023-09-14T05:01:32.175Z,100270.85
2023-09-14T05:04:36.900Z,100277.55
2023-09-14T05:07:44.239Z,100283.58
2023-09-14T05:10:52.679Z,100287.98
2023-09-14T05:13:57.999Z,100293.36
2023-09-14T05:17:03.523Z,100291.81
2023-09-14T05:20:09.998Z,100294.27
2023-09-14T05:23:15.086Z,100295.27
2023-09-14T05:26:19.293Z,100297.97
2023-09-14T05:29:23.385Z,100297.83
2023-09-14T05:32:27.524Z,100304.52
2023-09-14T05:35:33.065Z,100299.08
2023-09-14T05:38:37.214Z,100299.09
2023-09-14T05:41:41.743Z,100303.73
2023-09-14T05:44:45.712Z,100303.49
2023-09-14T05:47:50.148Z,100307.14
2023-09-14T05:50:54.179Z,100310.88
2023-09-14T05:53:58.327Z,100313.65
2023-09-14T05:57:04.281Z,100316.17
2023-09-14T06:00:14.575Z,100316.34
2023-09-14T06:03:23.609Z,100319.41
2023-09-14T06:06:27.919Z,100320.39
2023-09-14T06:09:31.970Z,100325.84
2023-09-14T06:12:36.456Z,100326.06
2023-09-14T06:15:40.510Z,100335.46
2023-09-14T06:18:45.127Z,100336.73
2023-09-14T06:21:49.513Z,100342.27
2023-09-14T06:24:53.537Z,100340.89
2023-09-14T06:27:57.657Z,100342.33
2023-09-14T06:31:01.829Z,100341.23
2023-09-14T06:34:06.254Z,100347.50
2023-09-14T06:37:10.310Z,100345.83
2023-09-14T06:40:16.123Z,100354.20
2023-09-14T06:43:20.348Z,100355.26
2023-09-14T06:46:24.531Z,100353.34
2023-09-14T06:49:28.560Z,100352.38
2023-09-14T06:52:34.034Z,100353.80
2023-09-14T06:55:39.739Z,100358.46
2023-09-14T06:58:44.388Z,100365.48
2023-09-14T07:01:48.744Z,100366.06
2023-09-14T07:04:52.731Z,100372.98
2023-09-14T07:07:56.905Z,100375.39
2023-09-14T07:11:01.339Z,100377.02
2023-09-14T07:14:05.551Z,100378.04
2023-09-14T07:17:10.934Z,100377.95
2023-09-14T07:20:15.110Z,100382.02
2023-09-14T07:23:19.648Z,100381.48
2023-09-14T07:26:23.682Z,100382.18
2023-09-14T07:29:29.700Z,100387.52
2023-09-14T07:32:34.619Z,100391.59
2023-09-14T07:35:41.070Z,100390.41
2023-09-14T07:38:45.690Z,100391.72
2023-09-14T07:41:56.579Z,100388.27
2023-09-14T07:45:00.771Z,100391.48
2023-09-14T07:48:06.367Z,100395.66
2023-09-14T07:51:10.380Z,100397.10
2023-09-14T07:54:14.959Z,100398.40
2023-09-14T07:57:18.973Z,100401.25
2023-09-14T08:00:22.927Z,100399.02
2023-09-14T08:03:29.014Z,100403.63
2023-09-14T08:06:34.911Z,100404.64
2023-09-14T08:09:41.520Z,100405.08
2023-09-14T08:12:45.609Z,100400.75
2023-09-14T08:15:49.782Z,100401.25
2023-09-14T08:18:53.915Z,100402.27
2023-09-14T08:21:58.881Z,100402.67
2023-09-14T08:25:04.798Z,100402.24
2023-09-14T08:28:08.920Z,100397.39
2023-09-14T08:31:13.208Z,100401.01
2023-09-14T08:34:17.625Z,100403.81
2023-09-14T08:37:21.612Z,100408.30
2023-09-14T08:40:26.118Z,100413.60
2023-09-14T08:43:30.592Z,100417.02
2023-09-14T08:46:36.250Z,100424.09
2023-09-14T08:49:43.003Z,100424.59
2023-09-14T08:52:48.066Z,100424.98
2023-09-14T08:55:52.505Z,100421.37
2023-09-14T08:58:57.317Z,100423.85
2023-09-14T09:02:03.200Z,100430.42
2023-09-14T09:05:07.976Z,100431.42
2023-09-14T09:08:12.567Z,100434.80
2023-09-14T09:11:16.676Z,100434.97
2023-09-14T09:14:20.672Z,100432.41
2023-09-14T09:17:24.821Z,100436.07
2023-09-14T09:20:29.221Z,100436.17
2023-09-14T09:23:35.223Z,100442.34
2023-09-14T09:26:41.627Z,100444.20
2023-09-14T09:29:45.832Z,100442.50
2023-09-14T09:32:56.668Z,100440.41
2023-09-14T09:36:02.319Z,100436.25
2023-09-14T09:39:07.716Z,100439.66
2023-09-14T09:42:14.477Z,100440.35
2023-09-14T09:45:20.972Z,100444.50
2023-09-14T09:48:28.637Z,100443.50
2023-09-14T09:51:34.254Z,100443.91
2023-09-14T09:54:38.259Z,100446.31
2023-09-14T09:57:51.157Z,100445.68
2023-09-14T10:00:59.063Z,100449.74
2023-09-14T10:04:09.173Z,100453.55
2023-09-14T10:07:22.568Z,100455.84
2023-09-14T10:10:28.162Z,100457.58
2023-09-14T10:13:32.123Z,100464.15
2023-09-14T10:16:40.154Z,100455.96
2023-09-14T10:19:49.071Z,100457.14
2023-09-14T10:22:53.939Z,100459.98
2023-09-14T10:25:59.007Z,100461.20
2023-09-14T10:29:05.657Z,100465.34
2023-09-14T10:32:12.787Z,100469.42
2023-09-14T10:35:19.256Z,100474.30
2023-09-14T10:38:24.562Z,100477.10
2023-09-14T10:41:29.178Z,100475.80
2023-09-14T10:44:34.110Z,100479.52
2023-09-14T10:47:41.983Z,100478.77
2023-09-14T10:50:46.575Z,100482.00
2023-09-14T10:53:50.933Z,100480.67
2023-09-14T10:56:58.432Z,100485.58
2023-09-14T11:00:20.408Z,100487.91
2023-09-14T11:03:27.517Z,100490.51
2023-09-14T11:06:53.918Z,100492.34
2023-09-14T11:10:08.841Z,100496.24
2023-09-14T11:13:22.669Z,100495.90
2023-09-14T11:16:42.760Z,100498.55
2023-09-14T11:19:54.909Z,100498.67
2023-09-14T11:23:04.399Z,100501.96
2023-09-14T11:26:19.178Z,100501.37
2023-09-14T11:29:29.092Z,100500.58
2023-09-14T11:32:35.717Z,100494.42
2023-09-14T11:35:47.201Z,100495.31
2023-09-14T11:38:53.210Z,100491.52
2023-09-14T11:42:05.948Z,100492.26
2023-09-14T11:51:29.360Z,100501.14
2023-09-14T11:54:33.816Z,100504.92
2023-09-14T11:57:39.250Z,100506.70
2023-09-14T12:00:47.267Z,100500.80
2023-09-14T12:03:51.952Z,100503.28
2023-09-14T12:06:57.169Z,100502.77
2023-09-14T12:10:02.355Z,100504.25
2023-09-14T12:13:14.897Z,100502.56
2023-09-14T12:16:29.111Z,100505.96
2023-09-14T12:19:33.385Z,100506.02
2023-09-14T12:22:37.410Z,100503.65
2023-09-14T12:25:42.894Z,100506.85
2023-09-14T12:28:52.841Z,100510.77
2023-09-14T12:31:56.878Z,100512.10
2023-09-14T12:35:00.911Z,100511.51
2023-09-14T12:38:05.809Z,100512.88
2023-09-14T12:41:12.390Z,100512.00
2023-09-14T12:44:18.167Z,100518.42
2023-09-14T12:47:22.575Z,100518.95
2023-09-14T12:50:31.144Z,100522.52
2023-09-14T12:53:41.668Z,100522.23
2023-09-14T12:56:46.094Z,100526.13
2023-09-14T13:00:08.571Z,100528.35
2023-09-14T13:03:15.560Z,100533.79
2023-09-14T13:06:20.892Z,100535.27
2023-09-14T13:09:25.034Z,100531.23
2023-09-14T13:12:29.098Z,100534.98
2023-09-14T13:15:34.939Z,100533.39
2023-09-14T13:18:39.066Z,100530.80
2023-09-14T13:21:44.595Z,100530.37
2023-09-14T13:24:48.581Z,100532.77
2023-09-14T13:27:53.774Z,100534.69
2023-09-14T13:30:58.709Z,100535.71
2023-09-14T13:34:03.226Z,100534.86
2023-09-14T13:37:07.292Z,100539.13
2023-09-14T13:40:24.714Z,100540.20
2023-09-14T13:43:28.670Z,100538.58
2023-09-14T13:46:32.697Z,100544.67
2023-09-14T13:49:36.676Z,100544.89
2023-09-14T13:52:40.755Z,100544.98
2023-09-14T13:55:45.029Z,100546.45
2023-09-14T13:58:49.242Z,100549.52
2023-09-14T14:01:54.046Z,100543.19
2023-09-14T14:04:58.560Z,100546.62
2023-09-14T14:08:05.276Z,100545.30
2023-09-14T14:11:09.234Z,100547.52
2023-09-14T14:14:19.279Z,100552.31
2023-09-14T14:17:29.315Z,100551.88
2023-09-14T14:20:33.507Z,100552.08
2023-09-14T14:23:37.529Z,100551.26
2023-09-14T14:26:44.252Z,100554.39
2023-09-14T14:29:49.260Z,100561.34
2023-09-14T14:32:53.286Z,100564.80
2023-09-14T14:35:57.274Z,100562.85
2023-09-14T14:39:01.287Z,100564.95
2023-09-14T14:42:05.890Z,100569.22
2023-09-14T14:45:10.688Z,100574.54
2023-09-14T14:48:14.783Z,100571.95
2023-09-14T14:51:18.855Z,100574.90
2023-09-14T14:54:22.828Z,100575.86
2023-09-14T14:57:26.822Z,100578.73
2023-09-14T15:00:30.930Z,100582.26
2023-09-14T15:03:34.974Z,100582.30
2023-09-14T15:06:39.153Z,100583.61
2023-09-14T15:09:43.365Z,100581.40
2023-09-14T15:12:48.308Z,100583.21
2023-09-14T15:15:52.590Z,100581.46
2023-09-14T15:18:56.691Z,100582.62
2023-09-14T15:22:01.238Z,100580.94
2023-09-14T15:25:05.804Z,100587.98
2023-09-14T15:28:10.023Z,100588.41
2023-09-14T15:31:18.710Z,100597.39
2023-09-14T15:34:22.738Z,100592.08
2023-09-14T15:37:27.156Z,100594.82
2023-09-14T15:40:32.284Z,100592.34
2023-09-14T15:43:36.259Z,100597.69
2023-09-14T15:46:40.465Z,100597.80
2023-09-14T15:49:45.009Z,100596.42
2023-09-14T15:52:49.220Z,100597.17
2023-09-14T15:55:54.583Z,100597.89
2023-09-14T15:58:58.654Z,100598.75
2023-09-14T16:02:03.402Z,100601.34
2023-09-14T16:05:09.496Z,100600.05
2023-09-14T16:08:13.933Z,100601.34
2023-09-14T16:11:18.499Z,100604.32
2023-09-14T16:14:23.568Z,100604.56
2023-09-14T16:17:27.630Z,100609.88
2023-09-14T16:20:32.584Z,100610.12
2023-09-14T16:23:36.686Z,100610.87
2023-09-14T16:26:40.693Z,100620.52
2023-09-14T16:29:44.628Z,100623.73
2023-09-14T16:32:50.958Z,100632.52
2023-09-14T16:35:58.315Z,100636.30
2023-09-14T16:39:08.048Z,100639.17
2023-09-14T16:42:12.221Z,100644.15
2023-09-14T16:45:16.461Z,100640.98
2023-09-14T16:48:20.658Z,100645.09
2023-09-14T16:51:25.916Z,100648.34
2023-09-14T16:54:30.341Z,100652.48
2023-09-14T16:57:34.457Z,100657.54
2023-09-14T17:00:38.507Z,100656.29
2023-09-14T17:03:42.624Z,100660.52
2023-09-14T17:06:48.215Z,100664.31
2023-09-14T17:09:52.429Z,100669.86
2023-09-14T17:12:56.622Z,100676.66
2023-09-14T17:16:00.685Z,100683.68
2023-09-14T17:19:06.688Z,100687.60
2023-09-14T17:22:12.667Z,100691.29
2023-09-14T17:25:16.739Z,100696.13
2023-09-14T17:28:23.172Z,100702.60
2023-09-14T17:31:27.458Z,100709.84
2023-09-14T17:34:32.090Z,100708.89
2023-09-14T17:37:36.449Z,100710.16
2023-09-14T17:40:40.390Z,100714.64
2023-09-14T17:43:44.731Z,100715.90
2023-09-14T17:46:48.791Z,100722.77
2023-09-14T17:49:52.808Z,100725.36
2023-09-14T17:52:56.776Z,100727.20
2023-09-14T17:56:04.190Z,100729.56
2023-09-14T17:59:08.360Z,100727.84
2023-09-14T18:02:12.328Z,100730.82
2023-09-14T18:05:16.504Z,100734.60
2023-09-14T18:08:21.445Z,100732.90
2023-09-14T18:11:25.913Z,100738.08
2023-09-14T18:14:29.866Z,100742.15
2023-09-14T18:17:35.658Z,100740.98
2023-09-14T18:20:39.884Z,100748.95
2023-09-14T18:23:44.050Z,100750.06
2023-09-14T18:26:49.292Z,100756.02
2023-09-14T18:29:53.230Z,100756.23
2023-09-14T18:32:59.671Z,100756.23
2023-09-14T18:36:04.360Z,100755.77
2023-09-14T18:39:08.390Z,100755.88
2023-09-14T18:42:12.387Z,100753.33
2023-09-14T18:45:16.781Z,100757.29
2023-09-14T18:48:21.284Z,100761.15
2023-09-14T18:51:25.268Z,100761.19
2023-09-14T18:54:29.243Z,100765.43
2023-09-14T18:57:33.186Z,100771.27
2023-09-14T19:00:37.454Z,100774.45
2023-09-14T19:03:41.472Z,100781.48
2023-09-14T19:06:46.051Z,100786.17
2023-09-14T19:09:50.659Z,100786.95
2023-09-14T19:12:54.626Z,100789.13
2023-09-14T19:15:58.646Z,100794.98
2023-09-14T19:19:02.871Z,100797.08
2023-09-14T19:22:07.004Z,100795.33
2023-09-14T19:25:11.147Z,100803.48
2023-09-14T19:28:15.325Z,100801.54
2023-09-14T19:31:20.870Z,100801.70
2023-09-14T19:34:24.857Z,100803.66
2023-09-14T19:37:28.814Z,100807.08
2023-09-14T19:40:33.194Z,100808.70
2023-09-14T19:43:37.031Z,100810.23
2023-09-14T19:46:41.918Z,100813.55
2023-09-14T19:49:46.068Z,100817.27
2023-09-14T19:52:50.101Z,100824.05
2023-09-14T19:55:54.560Z,100828.13
2023-09-14T19:58:58.584Z,100831.48
2023-09-14T20:02:02.700Z,100832.34
2023-09-14T20:05:07.017Z,100835.67
2023-09-14T20:08:10.994Z,100837.45
2023-09-14T20:11:15.301Z,100842.50
2023-09-14T20:14:19.937Z,100844.54
2023-09-14T20:17:24.029Z,100848.48
2023-09-14T20:20:29.095Z,100846.41
2023-09-14T20:23:33.110Z,100847.97
2023-09-14T20:26:38.418Z,100851.09
2023-09-14T20:29:42.422Z,100853.73
2023-09-14T20:32:46.466Z,100856.42
2023-09-14T20:35:50.518Z,100861.80
2023-09-14T20:38:55.362Z,100866.17
2023-09-14T20:42:00.867Z,100866.52
2023-09-14T20:45:07.377Z,100867.35
2023-09-14T20:48:14.324Z,100868.55
2023-09-14T20:51:18.785Z,100874.09
2023-09-14T20:54:22.826Z,100877.84
2023-09-14T20:57:26.893Z,100882.91
2023-09-14T21:00:34.656Z,100885.41
2023-09-14T21:03:39.093Z,100890.48
2023-09-14T21:06:43.804Z,100892.11
2023-09-14T21:09:47.828Z,100891.33
2023-09-14T21:12:51.899Z,100893.92
2023-09-14T21:15:55.973Z,100897.27
2023-09-14T21:19:00.189Z,100903.20
2023-09-14T21:22:04.621Z,100905.52
2023-09-14T21:25:08.829Z,100907.09
2023-09-14T21:28:12.884Z,100904.84
2023-09-14T21:31:17.447Z,100907.70
2023-09-14T21:34:21.457Z,100908.27
2023-09-14T21:37:25.411Z,100907.96
2023-09-14T21:40:31.648Z,100914.77
2023-09-14T21:43:38.114Z,100915.00
2023-09-14T21:46:42.154Z,100920.48
2023-09-14T21:49:46.455Z,100922.35
2023-09-14T21:52:50.563Z,100923.34
2023-09-14T21:55:54.535Z,100923.90
2023-09-14T21:58:58.474Z,100924.67
2023-09-14T22:02:04.218Z,100926.34
2023-09-14T22:05:08.801Z,100931.21
2023-09-14T22:08:12.790Z,100932.13
2023-09-14T22:11:16.690Z,100935.14
2023-09-14T22:14:21.669Z,100934.02
2023-09-14T22:17:25.769Z,100935.78
2023-09-14T22:20:31.336Z,100938.42
2023-09-14T22:23:35.255Z,100942.54
2023-09-14T22:26:39.594Z,100944.51
2023-09-14T22:29:43.472Z,100944.83
2023-09-14T22:32:49.146Z,100948.05
2023-09-14T22:35:54.193Z,100949.73
2023-09-14T22:38:58.154Z,100952.35
2023-09-14T22:42:02.120Z,100951.64
2023-09-14T22:45:07.371Z,100949.02
2023-09-14T22:48:11.377Z,100952.64
2023-09-14T22:51:17.900Z,100954.31
2023-09-14T22:54:22.590Z,100956.05
2023-09-14T22:57:27.105Z,100953.80
2023-09-14T23:00:31.075Z,100955.30
2023-09-14T23:03:35.604Z,100952.00
2023-09-14T23:06:39.804Z,100956.38
2023-09-14T23:09:45.164Z,100952.92
2023-09-14T23:12:49.497Z,100951.68
2023-09-14T23:15:53.698Z,100950.87
2023-09-14T23:18:57.786Z,100949.70
2023-09-14T23:22:02.389Z,100949.84
2023-09-14T23:25:08.611Z,100947.17
2023-09-14T23:28:12.873Z,100947.94
2023-09-14T23:31:18.034Z,100948.80
2023-09-14T23:34:23.813Z,100952.28
2023-09-14T23:37:27.803Z,100954.05
2023-09-14T23:40:36.354Z,100955.80
2023-09-14T23:43:43.598Z,100956.48
2023-09-14T23:46:47.882Z,100956.10
2023-09-14T23:49:52.168Z,100956.38
2023-09-14T23:52:57.242Z,100953.92
2023-09-14T23:56:01.215Z,100958.02
2023-09-14T23:59:09.348Z,100959.79
